sensor_id;sensor_type;location;lat;lon;timestamp;temperature;humidity
8707;DHT22;4390;49.302;9.306;2023-04-08T00:00:46;8.10;98.30
8707;DHT22;4390;49.302;9.306;2023-04-08T00:03:13;8.10;98.30
8707;DHT22;4390;49.302;9.306;2023-04-08T00:05:39;8.10;98.30
8707;DHT22;4390;49.302;9.306;2023-04-08T00:08:06;8.20;98.30
8707;DHT22;4390;49.302;9.306;2023-04-08T00:10:33;8.10;98.30
8707;DHT22;4390;49.302;9.306;2023-04-08T00:13:00;8.10;98.30
8707;DHT22;4390;49.302;9.306;2023-04-08T00:15:27;8.10;98.30
8707;DHT22;4390;49.302;9.306;2023-04-08T00:17:54;8.00;98.30
8707;DHT22;4390;49.302;9.306;2023-04-08T00:20:22;7.90;98.30
8707;DHT22;4390;49.302;9.306;2023-04-08T00:22:49;7.90;98.30
8707;DHT22;4390;49.302;9.306;2023-04-08T00:25:16;8.00;98.30
8707;DHT22;4390;49.302;9.306;2023-04-08T00:27:43;7.90;98.30
8707;DHT22;4390;49.302;9.306;2023-04-08T00:30:10;7.90;98.30
8707;DHT22;4390;49.302;9.306;2023-04-08T00:32:37;7.80;98.30
8707;DHT22;4390;49.302;9.306;2023-04-08T00:35:04;8.00;98.30
8707;DHT22;4390;49.302;9.306;2023-04-08T00:37:31;8.00;98.30
8707;DHT22;4390;49.302;9.306;2023-04-08T00:39:58;8.00;98.30
8707;DHT22;4390;49.302;9.306;2023-04-08T00:42:25;7.90;98.30
8707;DHT22;4390;49.302;9.306;2023-04-08T00:44:52;7.90;98.30
8707;DHT22;4390;49.302;9.306;2023-04-08T00:47:18;8.00;98.30
8707;DHT22;4390;49.302;9.306;2023-04-08T00:49:45;7.90;98.30
8707;DHT22;4390;49.302;9.306;2023-04-08T00:52:13;7.90;98.30
8707;DHT22;4390;49.302;9.306;2023-04-08T00:54:40;7.80;98.30
8707;DHT22;4390;49.302;9.306;2023-04-08T00:57:07;7.70;98.30
8707;DHT22;4390;49.302;9.306;2023-04-08T00:59:34;7.70;98.30
8707;DHT22;4390;49.302;9.306;2023-04-08T01:02:17;7.40;98.30
8707;DHT22;4390;49.302;9.306;2023-04-08T01:07:31;7.40;98.30
8707;DHT22;4390;49.302;9.306;2023-04-08T01:10:05;7.40;98.30
8707;DHT22;4390;49.302;9.306;2023-04-08T01:12:39;7.50;98.30
8707;DHT22;4390;49.302;9.306;2023-04-08T01:15:07;7.50;98.30
8707;DHT22;4390;49.302;9.306;2023-04-08T01:17:37;7.40;98.30
8707;DHT22;4390;49.302;9.306;2023-04-08T01:20:05;7.40;98.30
8707;DHT22;4390;49.302;9.306;2023-04-08T01:22:57;7.30;98.30
8707;DHT22;4390;49.302;9.306;2023-04-08T01:25:32;7.20;98.30
8707;DHT22;4390;49.302;9.306;2023-04-08T01:28:03;7.20;98.30
8707;DHT22;4390;49.302;9.306;2023-04-08T01:30:31;7.30;98.30
8707;DHT22;4390;49.302;9.306;2023-04-08T01:33:01;7.30;98.30
8707;DHT22;4390;49.302;9.306;2023-04-08T01:35:30;7.10;98.30
8707;DHT22;4390;49.302;9.306;2023-04-08T01:37:58;7.10;98.30
8707;DHT22;4390;49.302;9.306;2023-04-08T01:40:26;7.30;98.30
8707;DHT22;4390;49.302;9.306;2023-04-08T01:42:55;7.20;98.30
8707;DHT22;4390;49.302;9.306;2023-04-08T01:45:23;7.30;98.30
8707;DHT22;4390;49.302;9.306;2023-04-08T01:47:51;7.40;98.30
8707;DHT22;4390;49.302;9.306;2023-04-08T01:50:19;7.30;98.30
8707;DHT22;4390;49.302;9.306;2023-04-08T01:52:48;7.30;98.30
8707;DHT22;4390;49.302;9.306;2023-04-08T01:55:16;7.20;98.30
8707;DHT22;4390;49.302;9.306;2023-04-08T01:57:47;7.30;98.30
8707;DHT22;4390;49.302;9.306;2023-04-08T02:00:19;7.30;98.30
8707;DHT22;4390;49.302;9.306;2023-04-08T02:02:47;7.40;98.30
8707;DHT22;4390;49.302;9.306;2023-04-08T02:05:15;7.50;98.30
8707;DHT22;4390;49.302;9.306;2023-04-08T02:07:42;7.40;98.30
8707;DHT22;4390;49.302;9.306;2023-04-08T02:10:09;7.30;98.30
8707;DHT22;4390;49.302;9.306;2023-04-08T02:12:36;7.10;98.30
8707;DHT22;4390;49.302;9.306;2023-04-08T02:15:08;7.10;98.30
8707;DHT22;4390;49.302;9.306;2023-04-08T02:17:46;7.10;98.30
8707;DHT22;4390;49.302;9.306;2023-04-08T02:20:31;7.10;98.30
8707;DHT22;4390;49.302;9.306;2023-04-08T02:23:12;7.00;98.30
8707;DHT22;4390;49.302;9.306;2023-04-08T02:25:43;6.90;98.30
8707;DHT22;4390;49.302;9.306;2023-04-08T02:28:11;6.80;98.30
8707;DHT22;4390;49.302;9.306;2023-04-08T02:30:47;6.80;98.30
8707;DHT22;4390;49.302;9.306;2023-04-08T02:33:17;6.90;98.30
8707;DHT22;4390;49.302;9.306;2023-04-08T02:35:45;7.00;98.30
8707;DHT22;4390;49.302;9.306;2023-04-08T02:38:13;6.90;98.30
8707;DHT22;4390;49.302;9.306;2023-04-08T02:40:40;6.80;98.30
8707;DHT22;4390;49.302;9.306;2023-04-08T02:43:07;6.80;98.30
8707;DHT22;4390;49.302;9.306;2023-04-08T02:45:37;7.00;98.30
8707;DHT22;4390;49.302;9.306;2023-04-08T02:48:07;7.00;98.30
8707;DHT22;4390;49.302;9.306;2023-04-08T02:50:34;6.80;98.30
8707;DHT22;4390;49.302;9.306;2023-04-08T02:53:02;6.80;98.30
8707;DHT22;4390;49.302;9.306;2023-04-08T02:55:30;6.80;98.30
8707;DHT22;4390;49.302;9.306;2023-04-08T02:57:57;6.90;98.30
8707;DHT22;4390;49.302;9.306;2023-04-08T03:00:24;7.00;98.30
8707;DHT22;4390;49.302;9.306;2023-04-08T03:02:51;6.90;98.30
8707;DHT22;4390;49.302;9.306;2023-04-08T03:05:18;7.00;98.30
8707;DHT22;4390;49.302;9.306;2023-04-08T03:07:44;6.90;98.30
8707;DHT22;4390;49.302;9.306;2023-04-08T03:10:11;6.90;98.30
8707;DHT22;4390;49.302;9.306;2023-04-08T03:12:38;7.00;98.30
8707;DHT22;4390;49.302;9.306;2023-04-08T03:15:05;7.00;98.30
8707;DHT22;4390;49.302;9.306;2023-04-08T03:17:32;7.00;98.30
8707;DHT22;4390;49.302;9.306;2023-04-08T03:20:00;7.00;98.30
8707;DHT22;4390;49.302;9.306;2023-04-08T03:22:30;7.00;98.30
8707;DHT22;4390;49.302;9.306;2023-04-08T03:24:57;7.10;98.30
8707;DHT22;4390;49.302;9.306;2023-04-08T03:27:23;7.00;98.30
8707;DHT22;4390;49.302;9.306;2023-04-08T03:29:50;7.00;98.30
8707;DHT22;4390;49.302;9.306;2023-04-08T03:32:19;7.10;98.30
8707;DHT22;4390;49.302;9.306;2023-04-08T03:34:46;7.10;98.30
8707;DHT22;4390;49.302;9.306;2023-04-08T03:37:15;7.00;98.30
8707;DHT22;4390;49.302;9.306;2023-04-08T03:39:42;6.90;98.30
8707;DHT22;4390;49.302;9.306;2023-04-08T03:42:08;6.80;98.30
8707;DHT22;4390;49.302;9.306;2023-04-08T03:44:35;6.70;98.30
8707;DHT22;4390;49.302;9.306;2023-04-08T03:47:02;6.80;98.30
8707;DHT22;4390;49.302;9.306;2023-04-08T03:49:28;6.90;98.30
8707;DHT22;4390;49.302;9.306;2023-04-08T03:51:55;6.90;98.30
8707;DHT22;4390;49.302;9.306;2023-04-08T03:54:22;6.90;98.30
8707;DHT22;4390;49.302;9.306;2023-04-08T03:56:49;7.00;98.30
8707;DHT22;4390;49.302;9.306;2023-04-08T03:59:16;7.20;98.30
8707;DHT22;4390;49.302;9.306;2023-04-08T04:01:42;7.00;98.30
8707;DHT22;4390;49.302;9.306;2023-04-08T04:04:09;7.00;98.30
8707;DHT22;4390;49.302;9.306;2023-04-08T04:06:36;6.90;98.30
8707;DHT22;4390;49.302;9.306;2023-04-08T04:09:03;6.80;98.30
8707;DHT22;4390;49.302;9.306;2023-04-08T04:11:30;6.70;98.30
8707;DHT22;4390;49.302;9.306;2023-04-08T04:13:57;6.60;98.30
8707;DHT22;4390;49.302;9.306;2023-04-08T04:16:23;6.80;98.30
8707;DHT22;4390;49.302;9.306;2023-04-08T04:18:51;7.10;98.30
8707;DHT22;4390;49.302;9.306;2023-04-08T04:21:19;7.00;98.30
8707;DHT22;4390;49.302;9.306;2023-04-08T04:23:46;6.80;98.30
8707;DHT22;4390;49.302;9.306;2023-04-08T04:26:12;6.80;98.30
8707;DHT22;4390;49.302;9.306;2023-04-08T04:28:39;6.70;98.30
8707;DHT22;4390;49.302;9.306;2023-04-08T04:31:06;6.80;98.30
8707;DHT22;4390;49.302;9.306;2023-04-08T04:33:33;6.80;98.30
8707;DHT22;4390;49.302;9.306;2023-04-08T04:36:00;6.80;98.30
8707;DHT22;4390;49.302;9.306;2023-04-08T04:38:27;6.80;98.30
8707;DHT22;4390;49.302;9.306;2023-04-08T04:40:53;6.80;98.30
8707;DHT22;4390;49.302;9.306;2023-04-08T04:43:20;6.70;98.30
8707;DHT22;4390;49.302;9.306;2023-04-08T04:45:47;6.70;98.30
8707;DHT22;4390;49.302;9.306;2023-04-08T04:48:14;6.70;98.30
8707;DHT22;4390;49.302;9.306;2023-04-08T04:50:40;6.70;98.30
8707;DHT22;4390;49.302;9.306;2023-04-08T04:53:07;6.60;98.30
8707;DHT22;4390;49.302;9.306;2023-04-08T04:55:34;6.50;98.30
8707;DHT22;4390;49.302;9.306;2023-04-08T04:58:04;6.60;98.30
8707;DHT22;4390;49.302;9.306;2023-04-08T05:00:30;6.70;98.30
8707;DHT22;4390;49.302;9.306;2023-04-08T05:02:57;6.80;98.30
8707;DHT22;4390;49.302;9.306;2023-04-08T05:05:24;6.80;98.30
8707;DHT22;4390;49.302;9.306;2023-04-08T05:07:51;6.70;98.30
8707;DHT22;4390;49.302;9.306;2023-04-08T05:10:17;6.60;98.30
8707;DHT22;4390;49.302;9.306;2023-04-08T05:12:44;6.60;98.30
8707;DHT22;4390;49.302;9.306;2023-04-08T05:15:11;6.70;98.30
8707;DHT22;4390;49.302;9.306;2023-04-08T05:17:37;6.70;98.30
8707;DHT22;4390;49.302;9.306;2023-04-08T05:20:04;6.60;98.30
8707;DHT22;4390;49.302;9.306;2023-04-08T05:22:32;6.60;98.30
8707;DHT22;4390;49.302;9.306;2023-04-08T05:24:59;6.60;98.30
8707;DHT22;4390;49.302;9.306;2023-04-08T05:27:26;6.80;98.30
8707;DHT22;4390;49.302;9.306;2023-04-08T05:29:53;6.80;98.30
8707;DHT22;4390;49.302;9.306;2023-04-08T05:32:20;6.90;98.30
8707;DHT22;4390;49.302;9.306;2023-04-08T05:34:47;7.00;98.30
8707;DHT22;4390;49.302;9.306;2023-04-08T05:37:13;6.90;98.30
8707;DHT22;4390;49.302;9.306;2023-04-08T05:39:40;6.90;98.30
8707;DHT22;4390;49.302;9.306;2023-04-08T05:42:08;7.00;98.30
8707;DHT22;4390;49.302;9.306;2023-04-08T05:44:34;7.00;98.30
8707;DHT22;4390;49.302;9.306;2023-04-08T05:47:01;7.00;98.30
8707;DHT22;4390;49.302;9.306;2023-04-08T05:49:28;7.00;98.30
8707;DHT22;4390;49.302;9.306;2023-04-08T05:51:55;7.00;98.30
8707;DHT22;4390;49.302;9.306;2023-04-08T05:54:22;7.00;98.30
8707;DHT22;4390;49.302;9.306;2023-04-08T05:56:48;7.00;98.30
8707;DHT22;4390;49.302;9.306;2023-04-08T05:59:15;7.00;98.30
8707;DHT22;4390;49.302;9.306;2023-04-08T06:01:42;6.80;98.30
8707;DHT22;4390;49.302;9.306;2023-04-08T06:04:09;6.80;98.30
8707;DHT22;4390;49.302;9.306;2023-04-08T06:06:38;7.00;98.30
8707;DHT22;4390;49.302;9.306;2023-04-08T06:09:05;7.20;98.30
8707;DHT22;4390;49.302;9.306;2023-04-08T06:11:32;7.20;98.30
8707;DHT22;4390;49.302;9.306;2023-04-08T06:13:59;7.30;98.30
8707;DHT22;4390;49.302;9.306;2023-04-08T06:16:26;7.40;98.30
8707;DHT22;4390;49.302;9.306;2023-04-08T06:18:52;7.30;98.30
8707;DHT22;4390;49.302;9.306;2023-04-08T06:21:19;7.30;98.30
8707;DHT22;4390;49.302;9.306;2023-04-08T06:23:47;7.30;98.30
8707;DHT22;4390;49.302;9.306;2023-04-08T06:26:13;7.50;98.30
8707;DHT22;4390;49.302;9.306;2023-04-08T06:28:40;7.70;98.30
8707;DHT22;4390;49.302;9.306;2023-04-08T06:31:07;7.60;98.30
8707;DHT22;4390;49.302;9.306;2023-04-08T06:33:33;7.50;98.30
8707;DHT22;4390;49.302;9.306;2023-04-08T06:36:04;7.70;98.30
8707;DHT22;4390;49.302;9.306;2023-04-08T06:38:32;7.90;98.30
8707;DHT22;4390;49.302;9.306;2023-04-08T06:41:05;7.90;98.30
8707;DHT22;4390;49.302;9.306;2023-04-08T06:43:33;8.00;98.30
8707;DHT22;4390;49.302;9.306;2023-04-08T06:46:00;8.00;98.30
8707;DHT22;4390;49.302;9.306;2023-04-08T06:48:27;8.00;98.30
8707;DHT22;4390;49.302;9.306;2023-04-08T06:50:56;8.10;98.30
8707;DHT22;4390;49.302;9.306;2023-04-08T06:53:23;8.20;98.30
8707;DHT22;4390;49.302;9.306;2023-04-08T06:55:50;8.40;98.30
8707;DHT22;4390;49.302;9.306;2023-04-08T06:58:17;8.40;98.30
8707;DHT22;4390;49.302;9.306;2023-04-08T07:00:44;8.40;98.30
8707;DHT22;4390;49.302;9.306;2023-04-08T07:03:10;8.30;98.30
8707;DHT22;4390;49.302;9.306;2023-04-08T07:05:38;8.30;98.30
8707;DHT22;4390;49.302;9.306;2023-04-08T07:08:05;8.40;98.30
8707;DHT22;4390;49.302;9.306;2023-04-08T07:10:33;8.30;98.30
8707;DHT22;4390;49.302;9.306;2023-04-08T07:13:00;8.40;98.30
8707;DHT22;4390;49.302;9.306;2023-04-08T07:15:27;8.40;98.30
8707;DHT22;4390;49.302;9.306;2023-04-08T07:17:53;8.50;98.30
8707;DHT22;4390;49.302;9.306;2023-04-08T07:20:24;8.40;98.30
8707;DHT22;4390;49.302;9.306;2023-04-08T07:22:57;8.60;98.30
8707;DHT22;4390;49.302;9.306;2023-04-08T07:25:24;8.80;98.30
8707;DHT22;4390;49.302;9.306;2023-04-08T07:27:51;9.00;97.10
8707;DHT22;4390;49.302;9.306;2023-04-08T07:30:18;9.10;97.10
8707;DHT22;4390;49.302;9.306;2023-04-08T07:32:45;9.30;95.10
8707;DHT22;4390;49.302;9.306;2023-04-08T07:35:12;9.20;95.00
8707;DHT22;4390;49.302;9.306;2023-04-08T07:37:38;9.40;94.70
8707;DHT22;4390;49.302;9.306;2023-04-08T07:40:06;9.50;93.30
8707;DHT22;4390;49.302;9.306;2023-04-08T07:42:32;9.50;93.60
8707;DHT22;4390;49.302;9.306;2023-04-08T07:44:59;9.50;93.10
8707;DHT22;4390;49.302;9.306;2023-04-08T07:47:26;9.60;92.90
8707;DHT22;4390;49.302;9.306;2023-04-08T07:49:52;9.60;92.40
8707;DHT22;4390;49.302;9.306;2023-04-08T07:52:19;9.70;92.00
8707;DHT22;4390;49.302;9.306;2023-04-08T07:54:46;9.60;90.90
8707;DHT22;4390;49.302;9.306;2023-04-08T07:57:13;9.70;90.90
8707;DHT22;4390;49.302;9.306;2023-04-08T07:59:40;9.70;90.40
8707;DHT22;4390;49.302;9.306;2023-04-08T08:02:07;9.80;90.40
8707;DHT22;4390;49.302;9.306;2023-04-08T08:04:34;9.90;89.90
8707;DHT22;4390;49.302;9.306;2023-04-08T08:07:01;9.80;90.20
8707;DHT22;4390;49.302;9.306;2023-04-08T08:09:28;10.20;88.40
8707;DHT22;4390;49.302;9.306;2023-04-08T08:11:57;10.30;88.80
8707;DHT22;4390;49.302;9.306;2023-04-08T08:14:24;10.30;89.00
8707;DHT22;4390;49.302;9.306;2023-04-08T08:16:52;10.40;89.10
8707;DHT22;4390;49.302;9.306;2023-04-08T08:19:20;10.40;89.50
8707;DHT22;4390;49.302;9.306;2023-04-08T08:21:48;10.50;89.00
8707;DHT22;4390;49.302;9.306;2023-04-08T08:24:15;10.60;87.70
8707;DHT22;4390;49.302;9.306;2023-04-08T08:26:42;10.70;86.10
8707;DHT22;4390;49.302;9.306;2023-04-08T08:29:10;10.70;87.10
8707;DHT22;4390;49.302;9.306;2023-04-08T08:31:37;10.80;87.50
8707;DHT22;4390;49.302;9.306;2023-04-08T08:34:04;10.80;85.40
8707;DHT22;4390;49.302;9.306;2023-04-08T08:36:31;10.70;86.00
8707;DHT22;4390;49.302;9.306;2023-04-08T08:39:00;10.80;85.60
8707;DHT22;4390;49.302;9.306;2023-04-08T08:41:32;10.80;85.00
8707;DHT22;4390;49.302;9.306;2023-04-08T08:44:01;10.80;85.70
8707;DHT22;4390;49.302;9.306;2023-04-08T08:46:28;10.80;85.60
8707;DHT22;4390;49.302;9.306;2023-04-08T08:48:56;10.70;85.80
8707;DHT22;4390;49.302;9.306;2023-04-08T08:51:23;11.00;85.60
8707;DHT22;4390;49.302;9.306;2023-04-08T08:53:50;11.00;84.10
8707;DHT22;4390;49.302;9.306;2023-04-08T08:56:17;11.00;84.50
8707;DHT22;4390;49.302;9.306;2023-04-08T08:58:45;11.10;83.60
8707;DHT22;4390;49.302;9.306;2023-04-08T09:01:35;11.10;83.70
8707;DHT22;4390;49.302;9.306;2023-04-08T09:06:44;11.10;84.30
8707;DHT22;4390;49.302;9.306;2023-04-08T09:09:12;10.90;84.60
8707;DHT22;4390;49.302;9.306;2023-04-08T09:11:41;11.10;84.90
8707;DHT22;4390;49.302;9.306;2023-04-08T09:14:18;11.00;84.20
8707;DHT22;4390;49.302;9.306;2023-04-08T09:16:45;10.90;84.50
8707;DHT22;4390;49.302;9.306;2023-04-08T09:19:12;10.80;85.20
8707;DHT22;4390;49.302;9.306;2023-04-08T09:21:39;10.90;84.90
8707;DHT22;4390;49.302;9.306;2023-04-08T09:24:08;10.80;84.60
8707;DHT22;4390;49.302;9.306;2023-04-08T09:26:36;10.80;84.60
8707;DHT22;4390;49.302;9.306;2023-04-08T09:29:06;10.80;84.60
8707;DHT22;4390;49.302;9.306;2023-04-08T09:31:58;10.90;84.80
8707;DHT22;4390;49.302;9.306;2023-04-08T09:34:26;11.00;84.40
8707;DHT22;4390;49.302;9.306;2023-04-08T09:36:53;11.10;83.90
8707;DHT22;4390;49.302;9.306;2023-04-08T09:39:20;11.10;83.90
8707;DHT22;4390;49.302;9.306;2023-04-08T09:41:48;11.20;84.00
8707;DHT22;4390;49.302;9.306;2023-04-08T09:44:17;11.10;82.20
8707;DHT22;4390;49.302;9.306;2023-04-08T09:49:25;10.60;82.60
8707;DHT22;4390;49.302;9.306;2023-04-08T09:55:02;10.70;82.80
8707;DHT22;4390;49.302;9.306;2023-04-08T10:00:11;10.60;82.30
8707;DHT22;4390;49.302;9.306;2023-04-08T10:03:18;10.30;82.30
8707;DHT22;4390;49.302;9.306;2023-04-08T10:05:48;10.30;82.40
8707;DHT22;4390;49.302;9.306;2023-04-08T10:08:15;10.30;83.10
8707;DHT22;4390;49.302;9.306;2023-04-08T10:10:43;10.50;82.40
8707;DHT22;4390;49.302;9.306;2023-04-08T10:13:12;10.60;82.40
8707;DHT22;4390;49.302;9.306;2023-04-08T10:15:39;10.60;82.80
8707;DHT22;4390;49.302;9.306;2023-04-08T10:20:39;10.70;82.60
8707;DHT22;4390;49.302;9.306;2023-04-08T10:23:14;10.70;82.50
8707;DHT22;4390;49.302;9.306;2023-04-08T10:25:45;10.50;82.60
8707;DHT22;4390;49.302;9.306;2023-04-08T10:30:49;10.60;81.80
8707;DHT22;4390;49.302;9.306;2023-04-08T10:35:51;10.50;81.70
8707;DHT22;4390;49.302;9.306;2023-04-08T10:38:19;10.40;81.90
8707;DHT22;4390;49.302;9.306;2023-04-08T10:40:48;10.50;81.70
8707;DHT22;4390;49.302;9.306;2023-04-08T10:43:15;10.60;81.30
8707;DHT22;4390;49.302;9.306;2023-04-08T10:45:43;10.50;81.40
8707;DHT22;4390;49.302;9.306;2023-04-08T10:48:21;10.40;81.70
8707;DHT22;4390;49.302;9.306;2023-04-08T10:51:00;10.40;82.10
8707;DHT22;4390;49.302;9.306;2023-04-08T10:53:31;10.60;81.70
8707;DHT22;4390;49.302;9.306;2023-04-08T10:56:08;10.80;81.10
8707;DHT22;4390;49.302;9.306;2023-04-08T10:58:35;10.90;81.00
8707;DHT22;4390;49.302;9.306;2023-04-08T11:01:06;10.90;80.70
8707;DHT22;4390;49.302;9.306;2023-04-08T11:03:34;10.80;81.20
8707;DHT22;4390;49.302;9.306;2023-04-08T11:06:03;10.90;80.40
8707;DHT22;4390;49.302;9.306;2023-04-08T11:08:33;10.80;80.70
8707;DHT22;4390;49.302;9.306;2023-04-08T11:11:00;10.90;80.20
8707;DHT22;4390;49.302;9.306;2023-04-08T11:13:27;10.90;80.40
8707;DHT22;4390;49.302;9.306;2023-04-08T11:15:58;10.90;80.90
8707;DHT22;4390;49.302;9.306;2023-04-08T11:18:26;11.20;80.80
8707;DHT22;4390;49.302;9.306;2023-04-08T11:20:53;11.40;80.70
8707;DHT22;4390;49.302;9.306;2023-04-08T11:23:20;11.40;80.50
8707;DHT22;4390;49.302;9.306;2023-04-08T11:25:48;11.50;80.30
8707;DHT22;4390;49.302;9.306;2023-04-08T11:28:16;11.50;79.90
8707;DHT22;4390;49.302;9.306;2023-04-08T11:30:43;11.40;80.50
8707;DHT22;4390;49.302;9.306;2023-04-08T11:33:12;11.40;80.20
8707;DHT22;4390;49.302;9.306;2023-04-08T11:35:40;11.40;80.90
8707;DHT22;4390;49.302;9.306;2023-04-08T11:38:08;11.50;80.60
8707;DHT22;4390;49.302;9.306;2023-04-08T11:40:35;11.60;80.20
8707;DHT22;4390;49.302;9.306;2023-04-08T11:43:09;11.80;80.20
8707;DHT22;4390;49.302;9.306;2023-04-08T11:45:42;11.70;80.00
8707;DHT22;4390;49.302;9.306;2023-04-08T11:48:10;11.60;80.60
8707;DHT22;4390;49.302;9.306;2023-04-08T11:50:38;11.50;81.00
8707;DHT22;4390;49.302;9.306;2023-04-08T11:53:24;11.60;81.00
8707;DHT22;4390;49.302;9.306;2023-04-08T11:55:51;11.60;81.00
8707;DHT22;4390;49.302;9.306;2023-04-08T11:58:18;11.60;81.10
8707;DHT22;4390;49.302;9.306;2023-04-08T12:00:46;11.60;80.70
8707;DHT22;4390;49.302;9.306;2023-04-08T12:03:13;11.50;81.00
8707;DHT22;4390;49.302;9.306;2023-04-08T12:05:41;11.50;81.40
8707;DHT22;4390;49.302;9.306;2023-04-08T12:08:08;11.30;81.20
8707;DHT22;4390;49.302;9.306;2023-04-08T12:10:35;10.90;82.00
8707;DHT22;4390;49.302;9.306;2023-04-08T12:13:02;10.70;82.20
8707;DHT22;4390;49.302;9.306;2023-04-08T12:15:29;11.00;82.20
8707;DHT22;4390;49.302;9.306;2023-04-08T12:17:56;11.10;81.90
8707;DHT22;4390;49.302;9.306;2023-04-08T12:20:22;11.50;81.20
8707;DHT22;4390;49.302;9.306;2023-04-08T12:22:49;12.20;81.10
8707;DHT22;4390;49.302;9.306;2023-04-08T12:25:16;12.90;80.00
8707;DHT22;4390;49.302;9.306;2023-04-08T12:27:42;13.30;78.90
8707;DHT22;4390;49.302;9.306;2023-04-08T12:30:09;13.10;78.60
8707;DHT22;4390;49.302;9.306;2023-04-08T12:32:36;13.20;79.10
8707;DHT22;4390;49.302;9.306;2023-04-08T12:35:04;13.30;78.40
8707;DHT22;4390;49.302;9.306;2023-04-08T12:37:31;13.20;78.30
8707;DHT22;4390;49.302;9.306;2023-04-08T12:39:59;13.10;78.30
8707;DHT22;4390;49.302;9.306;2023-04-08T12:42:25;13.10;78.60
8707;DHT22;4390;49.302;9.306;2023-04-08T12:44:53;13.50;78.50
8707;DHT22;4390;49.302;9.306;2023-04-08T12:47:20;13.50;78.00
8707;DHT22;4390;49.302;9.306;2023-04-08T12:49:47;13.50;78.10
8707;DHT22;4390;49.302;9.306;2023-04-08T12:52:15;13.50;78.20
8707;DHT22;4390;49.302;9.306;2023-04-08T12:54:43;14.10;78.10
8707;DHT22;4390;49.302;9.306;2023-04-08T12:57:10;14.60;76.30
8707;DHT22;4390;49.302;9.306;2023-04-08T12:59:37;14.50;76.10
8707;DHT22;4390;49.302;9.306;2023-04-08T13:02:06;14.40;76.30
8707;DHT22;4390;49.302;9.306;2023-04-08T13:04:33;14.10;76.90
8707;DHT22;4390;49.302;9.306;2023-04-08T13:07:00;14.10;77.00
8707;DHT22;4390;49.302;9.306;2023-04-08T13:09:27;14.20;77.10
8707;DHT22;4390;49.302;9.306;2023-04-08T13:11:55;14.20;77.20
8707;DHT22;4390;49.302;9.306;2023-04-08T13:14:22;14.20;76.80
8707;DHT22;4390;49.302;9.306;2023-04-08T13:16:48;14.00;76.90
8707;DHT22;4390;49.302;9.306;2023-04-08T13:19:15;13.80;76.80
8707;DHT22;4390;49.302;9.306;2023-04-08T13:21:42;13.60;76.90
8707;DHT22;4390;49.302;9.306;2023-04-08T13:24:11;13.10;77.60
8707;DHT22;4390;49.302;9.306;2023-04-08T13:26:38;12.90;78.20
8707;DHT22;4390;49.302;9.306;2023-04-08T13:29:05;12.80;78.20
8707;DHT22;4390;49.302;9.306;2023-04-08T13:31:32;12.70;78.90
8707;DHT22;4390;49.302;9.306;2023-04-08T13:33:59;12.60;78.80
8707;DHT22;4390;49.302;9.306;2023-04-08T13:36:26;12.60;79.10
8707;DHT22;4390;49.302;9.306;2023-04-08T13:38:56;12.60;78.90
8707;DHT22;4390;49.302;9.306;2023-04-08T13:41:23;12.60;78.90
8707;DHT22;4390;49.302;9.306;2023-04-08T13:43:50;12.40;79.50
8707;DHT22;4390;49.302;9.306;2023-04-08T13:46:17;12.50;80.50
8707;DHT22;4390;49.302;9.306;2023-04-08T13:48:44;12.60;80.10
8707;DHT22;4390;49.302;9.306;2023-04-08T13:51:11;12.50;80.30
8707;DHT22;4390;49.302;9.306;2023-04-08T13:53:38;12.20;80.40
8707;DHT22;4390;49.302;9.306;2023-04-08T13:56:05;11.80;80.90
8707;DHT22;4390;49.302;9.306;2023-04-08T13:58:32;11.60;81.70
8707;DHT22;4390;49.302;9.306;2023-04-08T14:00:58;11.60;82.10
8707;DHT22;4390;49.302;9.306;2023-04-08T14:03:25;11.60;82.30
8707;DHT22;4390;49.302;9.306;2023-04-08T14:05:53;11.80;82.20
8707;DHT22;4390;49.302;9.306;2023-04-08T14:08:20;11.80;81.90
8707;DHT22;4390;49.302;9.306;2023-04-08T14:10:54;11.80;81.80
8707;DHT22;4390;49.302;9.306;2023-04-08T14:13:21;11.70;82.30
8707;DHT22;4390;49.302;9.306;2023-04-08T14:15:48;11.80;82.30
8707;DHT22;4390;49.302;9.306;2023-04-08T14:18:15;11.70;82.20
8707;DHT22;4390;49.302;9.306;2023-04-08T14:20:44;11.70;82.30
8707;DHT22;4390;49.302;9.306;2023-04-08T14:23:11;11.80;82.40
8707;DHT22;4390;49.302;9.306;2023-04-08T14:25:42;11.80;82.60
8707;DHT22;4390;49.302;9.306;2023-04-08T14:28:09;11.70;82.40
8707;DHT22;4390;49.302;9.306;2023-04-08T14:30:36;11.70;82.70
8707;DHT22;4390;49.302;9.306;2023-04-08T14:33:03;11.50;83.00
8707;DHT22;4390;49.302;9.306;2023-04-08T14:35:33;11.40;83.40
8707;DHT22;4390;49.302;9.306;2023-04-08T14:38:00;11.30;83.70
8707;DHT22;4390;49.302;9.306;2023-04-08T14:40:27;11.50;83.60
8707;DHT22;4390;49.302;9.306;2023-04-08T14:42:53;11.50;83.20
8707;DHT22;4390;49.302;9.306;2023-04-08T14:45:20;11.40;83.70
8707;DHT22;4390;49.302;9.306;2023-04-08T14:47:47;11.40;83.90
8707;DHT22;4390;49.302;9.306;2023-04-08T14:50:14;11.30;84.00
8707;DHT22;4390;49.302;9.306;2023-04-08T14:52:41;11.50;84.20
8707;DHT22;4390;49.302;9.306;2023-04-08T14:55:10;11.30;83.60
8707;DHT22;4390;49.302;9.306;2023-04-08T14:57:37;11.10;84.50
8707;DHT22;4390;49.302;9.306;2023-04-08T15:00:04;11.00;84.70
8707;DHT22;4390;49.302;9.306;2023-04-08T15:02:31;11.10;84.80
8707;DHT22;4390;49.302;9.306;2023-04-08T15:04:57;11.20;84.70
8707;DHT22;4390;49.302;9.306;2023-04-08T15:07:24;11.20;84.70
8707;DHT22;4390;49.302;9.306;2023-04-08T15:09:51;11.10;84.70
8707;DHT22;4390;49.302;9.306;2023-04-08T15:12:19;11.00;84.50
8707;DHT22;4390;49.302;9.306;2023-04-08T15:14:46;11.10;85.20
8707;DHT22;4390;49.302;9.306;2023-04-08T15:17:13;11.50;84.70
8707;DHT22;4390;49.302;9.306;2023-04-08T15:19:39;11.50;84.00
8707;DHT22;4390;49.302;9.306;2023-04-08T15:22:06;11.50;84.00
8707;DHT22;4390;49.302;9.306;2023-04-08T15:24:33;11.50;84.00
8707;DHT22;4390;49.302;9.306;2023-04-08T15:27:00;11.60;83.70
8707;DHT22;4390;49.302;9.306;2023-04-08T15:29:27;11.70;83.60
8707;DHT22;4390;49.302;9.306;2023-04-08T15:31:53;11.80;83.70
8707;DHT22;4390;49.302;9.306;2023-04-08T15:34:20;11.80;83.50
8707;DHT22;4390;49.302;9.306;2023-04-08T15:36:47;11.70;83.70
8707;DHT22;4390;49.302;9.306;2023-04-08T15:39:14;11.60;83.80
8707;DHT22;4390;49.302;9.306;2023-04-08T15:41:41;11.50;83.80
8707;DHT22;4390;49.302;9.306;2023-04-08T15:44:07;11.40;84.20
8707;DHT22;4390;49.302;9.306;2023-04-08T15:46:34;11.50;84.20
8707;DHT22;4390;49.302;9.306;2023-04-08T15:49:03;11.50;84.00
8707;DHT22;4390;49.302;9.306;2023-04-08T15:51:30;11.50;84.10
8707;DHT22;4390;49.302;9.306;2023-04-08T15:53:58;11.50;84.00
8707;DHT22;4390;49.302;9.306;2023-04-08T15:56:25;11.60;84.00
8707;DHT22;4390;49.302;9.306;2023-04-08T15:58:54;11.70;83.60
8707;DHT22;4390;49.302;9.306;2023-04-08T16:01:22;11.80;83.30
8707;DHT22;4390;49.302;9.306;2023-04-08T16:03:48;11.70;83.30
8707;DHT22;4390;49.302;9.306;2023-04-08T16:06:16;11.80;83.40
8707;DHT22;4390;49.302;9.306;2023-04-08T16:08:42;11.80;83.50
8707;DHT22;4390;49.302;9.306;2023-04-08T16:11:10;11.80;83.30
8707;DHT22;4390;49.302;9.306;2023-04-08T16:13:36;11.70;83.60
8707;DHT22;4390;49.302;9.306;2023-04-08T16:16:06;11.70;83.30
8707;DHT22;4390;49.302;9.306;2023-04-08T16:18:34;11.70;83.30
8707;DHT22;4390;49.302;9.306;2023-04-08T16:21:05;11.80;83.60
8707;DHT22;4390;49.302;9.306;2023-04-08T16:23:33;11.80;83.60
8707;DHT22;4390;49.302;9.306;2023-04-08T16:26:01;11.80;83.50
8707;DHT22;4390;49.302;9.306;2023-04-08T16:28:27;11.80;83.70
8707;DHT22;4390;49.302;9.306;2023-04-08T16:30:54;11.80;83.10
8707;DHT22;4390;49.302;9.306;2023-04-08T16:33:21;11.90;83.30
8707;DHT22;4390;49.302;9.306;2023-04-08T16:36:04;12.00;83.10